sensor_id;sensor_type;location;lat;lon;timestamp;temperature;humidity
18797;DHT22;9526;52.612;13.300;2023-05-16T00:01:20;14.60;99.90
18797;DHT22;9526;52.612;13.300;2023-05-16T00:03:44;14.60;99.90
18797;DHT22;9526;52.612;13.300;2023-05-16T00:06:09;14.60;99.90
18797;DHT22;9526;52.612;13.300;2023-05-16T00:08:33;14.60;99.90
18797;DHT22;9526;52.612;13.300;2023-05-16T00:10:57;14.60;99.90
18797;DHT22;9526;52.612;13.300;2023-05-16T00:13:20;14.60;99.90
18797;DHT22;9526;52.612;13.300;2023-05-16T00:15:47;14.60;99.90
18797;DHT22;9526;52.612;13.300;2023-05-16T00:18:10;14.60;99.90
18797;DHT22;9526;52.612;13.300;2023-05-16T00:20:37;14.50;99.90
18797;DHT22;9526;52.612;13.300;2023-05-16T00:23:02;14.50;99.90
18797;DHT22;9526;52.612;13.300;2023-05-16T00:25:26;14.50;99.90
18797;DHT22;9526;52.612;13.300;2023-05-16T00:27:50;14.50;99.90
18797;DHT22;9526;52.612;13.300;2023-05-16T00:30:13;14.40;99.90
18797;DHT22;9526;52.612;13.300;2023-05-16T00:32:38;14.50;99.90
18797;DHT22;9526;52.612;13.300;2023-05-16T00:35:02;14.50;99.90
18797;DHT22;9526;52.612;13.300;2023-05-16T00:37:26;14.50;99.90
18797;DHT22;9526;52.612;13.300;2023-05-16T00:39:51;14.50;99.90
18797;DHT22;9526;52.612;13.300;2023-05-16T00:42:14;14.50;99.90
18797;DHT22;9526;52.612;13.300;2023-05-16T00:44:38;14.40;99.90
18797;DHT22;9526;52.612;13.300;2023-05-16T00:47:03;14.40;99.90
18797;DHT22;9526;52.612;13.300;2023-05-16T00:49:27;14.30;99.90
18797;DHT22;9526;52.612;13.300;2023-05-16T00:51:51;14.30;99.90
18797;DHT22;9526;52.612;13.300;2023-05-16T00:54:15;14.20;99.90
18797;DHT22;9526;52.612;13.300;2023-05-16T00:56:41;14.20;99.90
18797;DHT22;9526;52.612;13.300;2023-05-16T00:59:05;14.10;99.90
18797;DHT22;9526;52.612;13.300;2023-05-16T01:01:28;14.10;99.90
18797;DHT22;9526;52.612;13.300;2023-05-16T01:03:53;14.00;99.90
18797;DHT22;9526;52.612;13.300;2023-05-16T01:06:17;13.90;99.90
18797;DHT22;9526;52.612;13.300;2023-05-16T01:08:41;13.90;99.90
18797;DHT22;9526;52.612;13.300;2023-05-16T01:11:17;13.80;99.90
18797;DHT22;9526;52.612;13.300;2023-05-16T01:13:53;13.80;99.90
18797;DHT22;9526;52.612;13.300;2023-05-16T01:16:24;13.70;99.90
18797;DHT22;9526;52.612;13.300;2023-05-16T01:18:56;13.60;99.90
18797;DHT22;9526;52.612;13.300;2023-05-16T01:21:37;13.60;99.90
18797;DHT22;9526;52.612;13.300;2023-05-16T01:24:16;13.60;99.90
18797;DHT22;9526;52.612;13.300;2023-05-16T01:26:49;13.50;99.90
18797;DHT22;9526;52.612;13.300;2023-05-16T01:29:14;13.40;99.90
18797;DHT22;9526;52.612;13.300;2023-05-16T01:31:38;13.40;99.90
18797;DHT22;9526;52.612;13.300;2023-05-16T01:34:02;13.40;99.90
18797;DHT22;9526;52.612;13.300;2023-05-16T01:36:32;13.40;99.90
18797;DHT22;9526;52.612;13.300;2023-05-16T01:39:06;13.30;99.90
18797;DHT22;9526;52.612;13.300;2023-05-16T01:41:40;13.30;99.90
18797;DHT22;9526;52.612;13.300;2023-05-16T01:44:15;13.20;99.90
18797;DHT22;9526;52.612;13.300;2023-05-16T01:46:44;13.20;99.90
18797;DHT22;9526;52.612;13.300;2023-05-16T01:49:15;13.20;99.90
18797;DHT22;9526;52.612;13.300;2023-05-16T01:51:46;13.20;99.90
18797;DHT22;9526;52.612;13.300;2023-05-16T01:54:14;13.20;99.90
18797;DHT22;9526;52.612;13.300;2023-05-16T01:56:43;13.10;99.90
18797;DHT22;9526;52.612;13.300;2023-05-16T01:59:14;13.00;99.90
18797;DHT22;9526;52.612;13.300;2023-05-16T02:01:38;13.00;99.90
18797;DHT22;9526;52.612;13.300;2023-05-16T02:04:02;12.90;99.90
18797;DHT22;9526;52.612;13.300;2023-05-16T02:06:26;12.80;99.90
18797;DHT22;9526;52.612;13.300;2023-05-16T02:08:50;12.80;99.90
18797;DHT22;9526;52.612;13.300;2023-05-16T02:11:14;12.80;99.90
18797;DHT22;9526;52.612;13.300;2023-05-16T02:13:38;12.70;99.90
18797;DHT22;9526;52.612;13.300;2023-05-16T02:16:03;12.70;99.90
18797;DHT22;9526;52.612;13.300;2023-05-16T02:18:27;12.60;99.90
18797;DHT22;9526;52.612;13.300;2023-05-16T02:20:51;12.50;99.90
18797;DHT22;9526;52.612;13.300;2023-05-16T02:23:14;12.50;99.90
18797;DHT22;9526;52.612;13.300;2023-05-16T02:25:38;12.40;99.90
18797;DHT22;9526;52.612;13.300;2023-05-16T02:28:04;12.40;99.90
18797;DHT22;9526;52.612;13.300;2023-05-16T02:30:28;12.20;99.90
18797;DHT22;9526;52.612;13.300;2023-05-16T02:32:53;12.30;99.90
18797;DHT22;9526;52.612;13.300;2023-05-16T02:35:16;12.30;99.90
18797;DHT22;9526;52.612;13.300;2023-05-16T02:37:41;12.20;99.90
18797;DHT22;9526;52.612;13.300;2023-05-16T02:40:06;12.20;99.90
18797;DHT22;9526;52.612;13.300;2023-05-16T02:42:31;12.10;99.90
18797;DHT22;9526;52.612;13.300;2023-05-16T02:44:54;12.10;99.90
18797;DHT22;9526;52.612;13.300;2023-05-16T02:47:18;12.10;99.90
18797;DHT22;9526;52.612;13.300;2023-05-16T02:49:43;12.10;99.90
18797;DHT22;9526;52.612;13.300;2023-05-16T02:52:07;12.10;99.90
18797;DHT22;9526;52.612;13.300;2023-05-16T02:54:31;12.00;99.90
18797;DHT22;9526;52.612;13.300;2023-05-16T02:56:54;12.10;99.90
18797;DHT22;9526;52.612;13.300;2023-05-16T02:59:18;12.00;99.90
18797;DHT22;9526;52.612;13.300;2023-05-16T03:01:42;12.00;99.90
18797;DHT22;9526;52.612;13.300;2023-05-16T03:04:05;12.00;99.90
18797;DHT22;9526;52.612;13.300;2023-05-16T03:06:31;11.90;99.90
18797;DHT22;9526;52.612;13.300;2023-05-16T03:08:54;12.00;99.90
18797;DHT22;9526;52.612;13.300;2023-05-16T03:11:18;12.10;99.90
18797;DHT22;9526;52.612;13.300;2023-05-16T03:13:43;12.00;99.90
18797;DHT22;9526;52.612;13.300;2023-05-16T03:16:07;12.10;99.90
18797;DHT22;9526;52.612;13.300;2023-05-16T03:18:31;12.10;99.90
18797;DHT22;9526;52.612;13.300;2023-05-16T03:20:56;12.10;99.90
18797;DHT22;9526;52.612;13.300;2023-05-16T03:23:22;12.10;99.90
18797;DHT22;9526;52.612;13.300;2023-05-16T03:25:46;12.10;99.90
18797;DHT22;9526;52.612;13.300;2023-05-16T03:28:16;12.10;99.90
18797;DHT22;9526;52.612;13.300;2023-05-16T03:30:40;12.10;99.90
18797;DHT22;9526;52.612;13.300;2023-05-16T03:33:03;12.10;99.90
18797;DHT22;9526;52.612;13.300;2023-05-16T03:35:27;12.10;99.90
18797;DHT22;9526;52.612;13.300;2023-05-16T03:37:51;12.00;99.90
18797;DHT22;9526;52.612;13.300;2023-05-16T03:40:16;12.10;99.90
18797;DHT22;9526;52.612;13.300;2023-05-16T03:42:40;12.10;99.90
18797;DHT22;9526;52.612;13.300;2023-05-16T03:45:04;12.10;99.90
18797;DHT22;9526;52.612;13.300;2023-05-16T03:47:29;12.00;99.90
18797;DHT22;9526;52.612;13.300;2023-05-16T03:49:53;12.10;99.90
18797;DHT22;9526;52.612;13.300;2023-05-16T03:52:16;12.00;99.90
18797;DHT22;9526;52.612;13.300;2023-05-16T03:54:40;12.00;99.90
18797;DHT22;9526;52.612;13.300;2023-05-16T03:57:05;12.10;99.90
18797;DHT22;9526;52.612;13.300;2023-05-16T03:59:29;12.10;99.90
18797;DHT22;9526;52.612;13.300;2023-05-16T04:01:52;12.10;99.90
18797;DHT22;9526;52.612;13.300;2023-05-16T04:04:16;12.10;99.90
18797;DHT22;9526;52.612;13.300;2023-05-16T04:06:40;12.10;99.90
18797;DHT22;9526;52.612;13.300;2023-05-16T04:09:03;12.10;99.90
18797;DHT22;9526;52.612;13.300;2023-05-16T04:11:27;12.10;99.90
18797;DHT22;9526;52.612;13.300;2023-05-16T04:13:53;12.00;99.90
18797;DHT22;9526;52.612;13.300;2023-05-16T04:16:17;12.00;99.90
18797;DHT22;9526;52.612;13.300;2023-05-16T04:18:41;12.00;99.90
18797;DHT22;9526;52.612;13.300;2023-05-16T04:21:05;12.00;99.90
18797;DHT22;9526;52.612;13.300;2023-05-16T04:23:31;11.90;99.90
18797;DHT22;9526;52.612;13.300;2023-05-16T04:25:55;11.90;99.90
18797;DHT22;9526;52.612;13.300;2023-05-16T04:28:20;11.90;99.90
18797;DHT22;9526;52.612;13.300;2023-05-16T04:30:45;11.90;99.90
18797;DHT22;9526;52.612;13.300;2023-05-16T04:33:09;12.00;99.90
18797;DHT22;9526;52.612;13.300;2023-05-16T04:35:33;11.90;99.90
18797;DHT22;9526;52.612;13.300;2023-05-16T04:37:58;12.00;99.90
18797;DHT22;9526;52.612;13.300;2023-05-16T04:40:22;11.90;99.90
18797;DHT22;9526;52.612;13.300;2023-05-16T04:42:46;11.90;99.90
18797;DHT22;9526;52.612;13.300;2023-05-16T04:45:10;12.00;99.90
18797;DHT22;9526;52.612;13.300;2023-05-16T04:47:36;12.00;99.90
18797;DHT22;9526;52.612;13.300;2023-05-16T04:50:00;11.90;99.90
18797;DHT22;9526;52.612;13.300;2023-05-16T04:52:24;11.90;99.90
18797;DHT22;9526;52.612;13.300;2023-05-16T04:54:49;11.90;99.90
18797;DHT22;9526;52.612;13.300;2023-05-16T04:57:14;11.90;99.90
18797;DHT22;9526;52.612;13.300;2023-05-16T04:59:37;12.00;99.90
18797;DHT22;9526;52.612;13.300;2023-05-16T05:02:01;12.00;99.90
18797;DHT22;9526;52.612;13.300;2023-05-16T05:04:26;12.00;99.90
18797;DHT22;9526;52.612;13.300;2023-05-16T05:06:50;11.90;99.90
18797;DHT22;9526;52.612;13.300;2023-05-16T05:09:14;12.00;99.90
18797;DHT22;9526;52.612;13.300;2023-05-16T05:11:38;11.80;99.90
18797;DHT22;9526;52.612;13.300;2023-05-16T05:14:02;11.80;99.90
18797;DHT22;9526;52.612;13.300;2023-05-16T05:16:26;11.70;99.90
18797;DHT22;9526;52.612;13.300;2023-05-16T05:18:49;11.70;99.90
18797;DHT22;9526;52.612;13.300;2023-05-16T05:21:15;11.70;99.90
18797;DHT22;9526;52.612;13.300;2023-05-16T05:23:39;11.80;99.90
18797;DHT22;9526;52.612;13.300;2023-05-16T05:26:03;11.80;99.90
18797;DHT22;9526;52.612;13.300;2023-05-16T05:28:26;11.80;99.90
18797;DHT22;9526;52.612;13.300;2023-05-16T05:30:50;11.70;99.90
18797;DHT22;9526;52.612;13.300;2023-05-16T05:33:16;11.80;99.90
18797;DHT22;9526;52.612;13.300;2023-05-16T05:35:40;11.80;99.90
18797;DHT22;9526;52.612;13.300;2023-05-16T05:38:05;11.80;99.90
18797;DHT22;9526;52.612;13.300;2023-05-16T05:40:29;11.80;99.90
18797;DHT22;9526;52.612;13.300;2023-05-16T05:42:52;11.80;99.90
18797;DHT22;9526;52.612;13.300;2023-05-16T05:45:16;11.80;99.90
18797;DHT22;9526;52.612;13.300;2023-05-16T05:47:39;11.80;99.90
18797;DHT22;9526;52.612;13.300;2023-05-16T05:50:04;11.80;99.90
18797;DHT22;9526;52.612;13.300;2023-05-16T05:52:29;11.90;99.90
18797;DHT22;9526;52.612;13.300;2023-05-16T05:54:54;12.00;99.90
18797;DHT22;9526;52.612;13.300;2023-05-16T05:57:20;12.00;99.90
18797;DHT22;9526;52.612;13.300;2023-05-16T05:59:43;12.00;99.90
18797;DHT22;9526;52.612;13.300;2023-05-16T06:02:07;12.10;99.90
18797;DHT22;9526;52.612;13.300;2023-05-16T06:04:32;12.00;99.90
18797;DHT22;9526;52.612;13.300;2023-05-16T06:06:55;12.00;99.90
18797;DHT22;9526;52.612;13.300;2023-05-16T06:09:20;12.10;99.90
18797;DHT22;9526;52.612;13.300;2023-05-16T06:11:45;12.10;99.90
18797;DHT22;9526;52.612;13.300;2023-05-16T06:14:09;12.10;99.90
18797;DHT22;9526;52.612;13.300;2023-05-16T06:16:32;12.20;99.90
18797;DHT22;9526;52.612;13.300;2023-05-16T06:18:56;12.20;99.90
18797;DHT22;9526;52.612;13.300;2023-05-16T06:21:19;12.20;99.90
18797;DHT22;9526;52.612;13.300;2023-05-16T06:23:43;12.20;99.90
18797;DHT22;9526;52.612;13.300;2023-05-16T06:26:07;12.30;99.90
18797;DHT22;9526;52.612;13.300;2023-05-16T06:28:32;12.30;99.90
18797;DHT22;9526;52.612;13.300;2023-05-16T06:30:57;12.20;99.90
18797;DHT22;9526;52.612;13.300;2023-05-16T06:33:20;12.20;99.90
18797;DHT22;9526;52.612;13.300;2023-05-16T06:35:44;12.10;99.90
18797;DHT22;9526;52.612;13.300;2023-05-16T06:38:09;12.10;99.90
18797;DHT22;9526;52.612;13.300;2023-05-16T06:40:32;12.10;99.90
18797;DHT22;9526;52.612;13.300;2023-05-16T06:42:56;12.10;99.90
18797;DHT22;9526;52.612;13.300;2023-05-16T06:45:21;12.20;99.90
18797;DHT22;9526;52.612;13.300;2023-05-16T06:47:44;12.20;99.90
18797;DHT22;9526;52.612;13.300;2023-05-16T06:50:09;12.30;99.90
18797;DHT22;9526;52.612;13.300;2023-05-16T06:52:33;12.30;99.90
18797;DHT22;9526;52.612;13.300;2023-05-16T06:54:56;12.40;99.90
18797;DHT22;9526;52.612;13.300;2023-05-16T06:57:20;12.40;99.90
18797;DHT22;9526;52.612;13.300;2023-05-16T06:59:44;12.30;99.90
18797;DHT22;9526;52.612;13.300;2023-05-16T07:02:10;12.40;99.90
18797;DHT22;9526;52.612;13.300;2023-05-16T07:04:34;12.40;99.90
18797;DHT22;9526;52.612;13.300;2023-05-16T07:06:59;12.40;99.90
18797;DHT22;9526;52.612;13.300;2023-05-16T07:09:23;12.40;99.90
18797;DHT22;9526;52.612;13.300;2023-05-16T07:11:47;12.50;99.90
18797;DHT22;9526;52.612;13.300;2023-05-16T07:14:11;12.50;99.90
18797;DHT22;9526;52.612;13.300;2023-05-16T07:16:35;12.50;99.90
18797;DHT22;9526;52.612;13.300;2023-05-16T07:19:01;12.50;99.90
18797;DHT22;9526;52.612;13.300;2023-05-16T07:21:26;12.60;99.90
18797;DHT22;9526;52.612;13.300;2023-05-16T07:23:50;12.70;99.90
18797;DHT22;9526;52.612;13.300;2023-05-16T07:26:14;12.90;99.90
18797;DHT22;9526;52.612;13.300;2023-05-16T07:28:39;13.10;99.90
18797;DHT22;9526;52.612;13.300;2023-05-16T07:31:04;13.10;99.90
18797;DHT22;9526;52.612;13.300;2023-05-16T07:33:29;13.20;99.90
18797;DHT22;9526;52.612;13.300;2023-05-16T07:35:54;13.20;99.90
18797;DHT22;9526;52.612;13.300;2023-05-16T07:38:36;13.10;99.90
18797;DHT22;9526;52.612;13.300;2023-05-16T07:41:00;13.10;99.90
18797;DHT22;9526;52.612;13.300;2023-05-16T07:43:23;13.10;99.90
18797;DHT22;9526;52.612;13.300;2023-05-16T07:45:49;13.00;99.90
18797;DHT22;9526;52.612;13.300;2023-05-16T07:48:13;13.10;99.90
18797;DHT22;9526;52.612;13.300;2023-05-16T07:50:37;13.10;99.90
18797;DHT22;9526;52.612;13.300;2023-05-16T07:53:02;13.10;99.90
18797;DHT22;9526;52.612;13.300;2023-05-16T07:55:25;13.00;99.90
18797;DHT22;9526;52.612;13.300;2023-05-16T07:57:49;13.00;99.90
18797;DHT22;9526;52.612;13.300;2023-05-16T08:00:14;13.00;99.90
18797;DHT22;9526;52.612;13.300;2023-05-16T08:02:38;13.10;99.90
18797;DHT22;9526;52.612;13.300;2023-05-16T08:05:04;13.10;99.90
18797;DHT22;9526;52.612;13.300;2023-05-16T08:07:29;13.00;99.90
18797;DHT22;9526;52.612;13.300;2023-05-16T08:09:54;13.00;99.90
18797;DHT22;9526;52.612;13.300;2023-05-16T08:12:18;13.00;99.90
18797;DHT22;9526;52.612;13.300;2023-05-16T08:14:41;13.20;99.90
18797;DHT22;9526;52.612;13.300;2023-05-16T08:17:05;13.10;99.90
18797;DHT22;9526;52.612;13.300;2023-05-16T08:19:29;13.20;99.90
18797;DHT22;9526;52.612;13.300;2023-05-16T08:21:53;13.20;99.90
18797;DHT22;9526;52.612;13.300;2023-05-16T08:24:17;13.20;99.90
18797;DHT22;9526;52.612;13.300;2023-05-16T08:26:42;13.40;99.90
18797;DHT22;9526;52.612;13.300;2023-05-16T08:29:06;13.40;99.90
18797;DHT22;9526;52.612;13.300;2023-05-16T08:31:29;13.30;99.90
18797;DHT22;9526;52.612;13.300;2023-05-16T08:33:53;13.30;99.90
18797;DHT22;9526;52.612;13.300;2023-05-16T08:36:17;13.40;99.90
18797;DHT22;9526;52.612;13.300;2023-05-16T08:38:41;13.60;99.90
18797;DHT22;9526;52.612;13.300;2023-05-16T08:41:05;13.50;99.90
18797;DHT22;9526;52.612;13.300;2023-05-16T08:43:30;13.50;99.90
18797;DHT22;9526;52.612;13.300;2023-05-16T08:45:56;13.50;99.90
18797;DHT22;9526;52.612;13.300;2023-05-16T08:48:22;13.50;99.90
18797;DHT22;9526;52.612;13.300;2023-05-16T08:50:46;13.50;99.90
18797;DHT22;9526;52.612;13.300;2023-05-16T08:53:11;13.60;99.90
18797;DHT22;9526;52.612;13.300;2023-05-16T08:55:39;13.60;99.90
18797;DHT22;9526;52.612;13.300;2023-05-16T08:58:03;13.60;99.90
18797;DHT22;9526;52.612;13.300;2023-05-16T09:00:29;13.70;99.90
18797;DHT22;9526;52.612;13.300;2023-05-16T09:02:53;13.80;99.90
18797;DHT22;9526;52.612;13.300;2023-05-16T09:05:17;13.70;99.90
18797;DHT22;9526;52.612;13.300;2023-05-16T09:07:41;13.80;99.90
18797;DHT22;9526;52.612;13.300;2023-05-16T09:10:06;13.80;99.90
18797;DHT22;9526;52.612;13.300;2023-05-16T09:12:30;13.80;99.90
18797;DHT22;9526;52.612;13.300;2023-05-16T09:14:54;13.90;99.90
18797;DHT22;9526;52.612;13.300;2023-05-16T09:17:19;14.00;99.90
18797;DHT22;9526;52.612;13.300;2023-05-16T09:20:08;13.90;99.90
18797;DHT22;9526;52.612;13.300;2023-05-16T09:22:32;13.80;99.90
18797;DHT22;9526;52.612;13.300;2023-05-16T09:24:59;13.70;99.90
18797;DHT22;9526;52.612;13.300;2023-05-16T09:27:22;13.70;99.90
18797;DHT22;9526;52.612;13.300;2023-05-16T09:29:50;13.80;99.90
18797;DHT22;9526;52.612;13.300;2023-05-16T09:32:15;13.90;99.90
18797;DHT22;9526;52.612;13.300;2023-05-16T09:34:42;13.90;99.90
18797;DHT22;9526;52.612;13.300;2023-05-16T09:37:08;13.90;99.90
18797;DHT22;9526;52.612;13.300;2023-05-16T09:39:33;14.00;99.90
18797;DHT22;9526;52.612;13.300;2023-05-16T09:41:58;14.00;99.90
18797;DHT22;9526;52.612;13.300;2023-05-16T09:44:21;13.90;99.90
18797;DHT22;9526;52.612;13.300;2023-05-16T09:46:45;13.90;99.90
18797;DHT22;9526;52.612;13.300;2023-05-16T09:49:11;13.90;99.90
18797;DHT22;9526;52.612;13.300;2023-05-16T09:51:36;14.00;99.90
18797;DHT22;9526;52.612;13.300;2023-05-16T09:54:00;14.20;99.90
18797;DHT22;9526;52.612;13.300;2023-05-16T09:56:23;14.10;99.90
18797;DHT22;9526;52.612;13.300;2023-05-16T09:58:47;14.40;99.90
18797;DHT22;9526;52.612;13.300;2023-05-16T10:01:14;14.30;99.90
18797;DHT22;9526;52.612;13.300;2023-05-16T10:03:39;14.20;99.90
18797;DHT22;9526;52.612;13.300;2023-05-16T10:06:05;14.30;99.90
18797;DHT22;9526;52.612;13.300;2023-05-16T10:08:31;14.20;99.90
18797;DHT22;9526;52.612;13.300;2023-05-16T10:10:57;14.30;99.90
18797;DHT22;9526;52.612;13.300;2023-05-16T10:13:22;14.40;99.90
18797;DHT22;9526;52.612;13.300;2023-05-16T10:15:48;14.40;99.90
18797;DHT22;9526;52.612;13.300;2023-05-16T10:18:12;14.30;99.90
18797;DHT22;9526;52.612;13.300;2023-05-16T10:20:38;14.30;99.90
18797;DHT22;9526;52.612;13.300;2023-05-16T10:23:03;14.40;99.90
18797;DHT22;9526;52.612;13.300;2023-05-16T10:25:34;14.30;99.90
18797;DHT22;9526;52.612;13.300;2023-05-16T10:28:02;14.20;99.90
18797;DHT22;9526;52.612;13.300;2023-05-16T10:30:26;14.10;99.90
18797;DHT22;9526;52.612;13.300;2023-05-16T10:32:51;14.20;99.90
18797;DHT22;9526;52.612;13.300;2023-05-16T10:35:15;14.20;99.90
18797;DHT22;9526;52.612;13.300;2023-05-16T10:37:39;14.10;99.90
18797;DHT22;9526;52.612;13.300;2023-05-16T10:40:04;14.00;99.90
18797;DHT22;9526;52.612;13.300;2023-05-16T10:42:32;13.90;99.90
18797;DHT22;9526;52.612;13.300;2023-05-16T10:45:08;13.80;99.90
18797;DHT22;9526;52.612;13.300;2023-05-16T10:47:36;13.70;99.90
18797;DHT22;9526;52.612;13.300;2023-05-16T10:49:59;13.70;99.90
18797;DHT22;9526;52.612;13.300;2023-05-16T10:52:32;13.60;99.90
18797;DHT22;9526;52.612;13.300;2023-05-16T10:55:01;13.80;99.90
18797;DHT22;9526;52.612;13.300;2023-05-16T10:57:25;13.90;99.90
18797;DHT22;9526;52.612;13.300;2023-05-16T10:59:51;14.10;99.90
18797;DHT22;9526;52.612;13.300;2023-05-16T11:02:26;14.30;99.90
18797;DHT22;9526;52.612;13.300;2023-05-16T11:04:51;14.50;99.90
18797;DHT22;9526;52.612;13.300;2023-05-16T11:07:18;14.70;99.90
18797;DHT22;9526;52.612;13.300;2023-05-16T11:09:43;14.60;99.90
18797;DHT22;9526;52.612;13.300;2023-05-16T11:12:08;14.70;99.90
18797;DHT22;9526;52.612;13.300;2023-05-16T11:14:37;15.00;99.90
18797;DHT22;9526;52.612;13.300;2023-05-16T11:17:08;15.10;99.90
18797;DHT22;9526;52.612;13.300;2023-05-16T11:19:39;15.20;99.90
18797;DHT22;9526;52.612;13.300;2023-05-16T11:22:09;15.30;99.90
18797;DHT22;9526;52.612;13.300;2023-05-16T11:24:48;15.30;99.90
18797;DHT22;9526;52.612;13.300;2023-05-16T11:27:19;15.30;99.90
18797;DHT22;9526;52.612;13.300;2023-05-16T11:29:48;15.20;99.90
18797;DHT22;9526;52.612;13.300;2023-05-16T11:32:13;15.10;99.90
18797;DHT22;9526;52.612;13.300;2023-05-16T11:34:42;15.10;99.90
18797;DHT22;9526;52.612;13.300;2023-05-16T11:37:09;15.10;99.90
18797;DHT22;9526;52.612;13.300;2023-05-16T11:39:33;15.00;99.90
18797;DHT22;9526;52.612;13.300;2023-05-16T11:41:57;14.80;99.90
18797;DHT22;9526;52.612;13.300;2023-05-16T11:44:20;14.70;99.90
18797;DHT22;9526;52.612;13.300;2023-05-16T11:46:44;14.70;99.90
18797;DHT22;9526;52.612;13.300;2023-05-16T11:49:10;14.50;99.90
18797;DHT22;9526;52.612;13.300;2023-05-16T11:51:36;14.60;99.90
18797;DHT22;9526;52.612;13.300;2023-05-16T11:54:01;14.70;99.90
18797;DHT22;9526;52.612;13.300;2023-05-16T11:56:26;15.00;99.90
18797;DHT22;9526;52.612;13.300;2023-05-16T11:58:49;15.40;99.90
18797;DHT22;9526;52.612;13.300;2023-05-16T12:01:13;15.80;99.90
18797;DHT22;9526;52.612;13.300;2023-05-16T12:03:37;16.20;99.90
18797;DHT22;9526;52.612;13.300;2023-05-16T12:06:03;16.40;99.90
18797;DHT22;9526;52.612;13.300;2023-05-16T12:08:27;16.80;99.90
18797;DHT22;9526;52.612;13.300;2023-05-16T12:10:52;17.40;99.90
18797;DHT22;9526;52.612;13.300;2023-05-16T12:13:16;17.40;99.90
18797;DHT22;9526;52.612;13.300;2023-05-16T12:15:41;17.50;99.90
18797;DHT22;9526;52.612;13.300;2023-05-16T12:18:05;17.40;99.90
18797;DHT22;9526;52.612;13.300;2023-05-16T12:20:30;17.40;99.90
18797;DHT22;9526;52.612;13.300;2023-05-16T12:22:56;17.20;99.90
18797;DHT22;9526;52.612;13.300;2023-05-16T12:25:22;16.90;99.90
18797;DHT22;9526;52.612;13.300;2023-05-16T12:27:48;16.80;99.90
18797;DHT22;9526;52.612;13.300;2023-05-16T12:30:12;16.80;99.90
18797;DHT22;9526;52.612;13.300;2023-05-16T12:32:36;16.90;99.90
18797;DHT22;9526;52.612;13.300;2023-05-16T12:35:00;16.80;99.90
18797;DHT22;9526;52.612;13.300;2023-05-16T12:37:24;16.90;99.90
18797;DHT22;9526;52.612;13.300;2023-05-16T12:39:50;17.20;99.90
18797;DHT22;9526;52.612;13.300;2023-05-16T12:42:14;17.50;99.90
18797;DHT22;9526;52.612;13.300;2023-05-16T12:44:37;17.70;99.90
18797;DHT22;9526;52.612;13.300;2023-05-16T12:47:02;17.50;99.90
18797;DHT22;9526;52.612;13.300;2023-05-16T12:49:26;17.70;99.90
18797;DHT22;9526;52.612;13.300;2023-05-16T12:51:50;17.80;99.90
18797;DHT22;9526;52.612;13.300;2023-05-16T12:54:15;17.80;99.90
18797;DHT22;9526;52.612;13.300;2023-05-16T12:56:40;17.80;99.90
18797;DHT22;9526;52.612;13.300;2023-05-16T12:59:05;17.70;99.90
18797;DHT22;9526;52.612;13.300;2023-05-16T13:01:28;17.60;99.90
18797;DHT22;9526;52.612;13.300;2023-05-16T13:03:52;17.80;99.90
18797;DHT22;9526;52.612;13.300;2023-05-16T13:06:16;17.90;99.90
18797;DHT22;9526;52.612;13.300;2023-05-16T13:08:40;17.90;99.90
18797;DHT22;9526;52.612;13.300;2023-05-16T13:11:03;18.00;99.90
18797;DHT22;9526;52.612;13.300;2023-05-16T13:13:28;17.90;99.60
18797;DHT22;9526;52.612;13.300;2023-05-16T13:15:56;17.80;99.90
18797;DHT22;9526;52.612;13.300;2023-05-16T13:18:19;17.90;99.90
18797;DHT22;9526;52.612;13.300;2023-05-16T13:20:43;17.90;99.90
18797;DHT22;9526;52.612;13.300;2023-05-16T13:23:07;18.00;99.90
18797;DHT22;9526;52.612;13.300;2023-05-16T13:25:30;17.90;99.90
18797;DHT22;9526;52.612;13.300;2023-05-16T13:27:54;18.30;99.90
18797;DHT22;9526;52.612;13.300;2023-05-16T13:30:19;18.50;99.90
18797;DHT22;9526;52.612;13.300;2023-05-16T13:32:43;18.80;98.60
18797;DHT22;9526;52.612;13.300;2023-05-16T13:35:07;18.80;98.50
18797;DHT22;9526;52.612;13.300;2023-05-16T13:37:31;18.60;98.80
18797;DHT22;9526;52.612;13.300;2023-05-16T13:39:55;18.80;99.90
18797;DHT22;9526;52.612;13.300;2023-05-16T13:42:18;18.80;98.90
18797;DHT22;9526;52.612;13.300;2023-05-16T13:44:42;18.50;97.10
18797;DHT22;9526;52.612;13.300;2023-05-16T13:47:07;18.40;97.70
18797;DHT22;9526;52.612;13.300;2023-05-16T13:49:31;18.20;97.30
18797;DHT22;9526;52.612;13.300;2023-05-16T13:51:55;18.30;97.70
18797;DHT22;9526;52.612;13.300;2023-05-16T13:54:19;18.30;99.60
18797;DHT22;9526;52.612;13.300;2023-05-16T13:56:44;18.40;97.00
18797;DHT22;9526;52.612;13.300;2023-05-16T13:59:10;18.30;96.00
18797;DHT22;9526;52.612;13.300;2023-05-16T14:01:44;18.30;96.50
18797;DHT22;9526;52.612;13.300;2023-05-16T14:04:10;18.50;97.50
18797;DHT22;9526;52.612;13.300;2023-05-16T14:06:34;18.60;96.90
18797;DHT22;9526;52.612;13.300;2023-05-16T14:08:58;18.70;96.90
18797;DHT22;9526;52.612;13.300;2023-05-16T14:11:21;18.70;96.00
18797;DHT22;9526;52.612;13.300;2023-05-16T14:13:50;18.50;93.80
18797;DHT22;9526;52.612;13.300;2023-05-16T14:16:14;18.70;94.90
18797;DHT22;9526;52.612;13.300;2023-05-16T14:18:38;19.30;97.60
18797;DHT22;9526;52.612;13.300;2023-05-16T14:21:03;19.60;94.60
18797;DHT22;9526;52.612;13.300;2023-05-16T14:23:27;19.40;93.60
18797;DHT22;9526;52.612;13.300;2023-05-16T14:25:51;19.10;91.80
18797;DHT22;9526;52.612;13.300;2023-05-16T14:28:14;18.70;90.70
18797;DHT22;9526;52.612;13.300;2023-05-16T14:30:38;18.60;91.60
18797;DHT22;9526;52.612;13.300;2023-05-16T14:33:02;18.70;93.60
18797;DHT22;9526;52.612;13.300;2023-05-16T14:35:27;18.80;93.50
18797;DHT22;9526;52.612;13.300;2023-05-16T14:37:52;18.80;91.40
18797;DHT22;9526;52.612;13.300;2023-05-16T14:40:16;18.70;90.70
18797;DHT22;9526;52.612;13.300;2023-05-16T14:42:40;18.70;91.10
18797;DHT22;9526;52.612;13.300;2023-05-16T14:45:05;18.50;90.90
18797;DHT22;9526;52.612;13.300;2023-05-16T14:47:29;18.50;92.20
18797;DHT22;9526;52.612;13.300;2023-05-16T14:49:53;18.60;91.30
18797;DHT22;9526;52.612;13.300;2023-05-16T14:52:17;18.60;92.50
18797;DHT22;9526;52.612;13.300;2023-05-16T14:54:42;18.80;91.40
18797;DHT22;9526;52.612;13.300;2023-05-16T14:57:06;18.70;90.60
18797;DHT22;9526;52.612;13.300;2023-05-16T14:59:30;18.60;92.20
18797;DHT22;9526;52.612;13.300;2023-05-16T15:01:54;18.60;87.30
18797;DHT22;9526;52.612;13.300;2023-05-16T15:04:17;18.60;90.00
18797;DHT22;9526;52.612;13.300;2023-05-16T15:06:42;18.60;88.30
18797;DHT22;9526;52.612;13.300;2023-05-16T15:09:06;18.40;88.70
18797;DHT22;9526;52.612;13.300;2023-05-16T15:11:31;18.40;90.40
18797;DHT22;9526;52.612;13.300;2023-05-16T15:13:55;18.40;89.40
18797;DHT22;9526;52.612;13.300;2023-05-16T15:16:18;18.40;87.60